• Join FlightAware (Why Join?)
  • Login
  • US Flag 
06:06AM EDT


 

Airport Tracker/Info


-or-


 

Live Flight TrackerFlight Track Log ✈ EGF3681 ✈ 23-Aug-2013 ✈ KORD - KDAY

Flight Track Log - Related Links

Times and Time Zones

All times are in EDT time to prevent confusion due to time zone crossing. See the EGF3681 flight status page for this flight to view local times or setup timezone preferences in your user account.

Time Position Orientation Groundspeed Altitude Reporting Facility
EDT Latitude Longitude Course Direction KTS MPH feet Rate Location/Type
11:31PM 42.0000 -87.9333 95° East 169 194 1,700  Level Chicago TRACON
11:32PM 42.0167 -87.8833 66° East 212 244 3,200 1,860 Climbing Chicago TRACON
11:33PM 42.0167 -87.7833 90° East 257 296 5,300 2,040 Climbing Chicago TRACON
11:34PM 41.9660 -87.5267 98° East  Level FlightAware Approximate
11:34PM 42.0167 -87.6833 90° East 280 322 7,600  Level Chicago TRACON
11:35PM 41.9537 -87.4034 98° East  Level FlightAware Approximate
11:35PM 42.0228 -87.5911 85° East 288 331 9,300  Level Chicago Center
11:36PM 41.9439 -87.2797 95° East  Level FlightAware Approximate
11:36PM 42.0072 -87.4819 101° East 296 341 11,300  Level Chicago Center
11:37PM 41.9350 -87.1559 95° East  Level FlightAware Approximate
11:37PM 41.9892 -87.3617 101° East 322 371 12,700  Level Chicago Center
11:38PM 41.9697 -87.2314 101° East 353 406 13,800 1,080 Climbing Chicago Center
11:39PM 41.9469 -87.0958 103° East 370 426 14,900 1,200 Climbing Chicago Center
11:40PM 41.8861 -86.9789 125° Southeast 382 440 16,300 1,320 Climbing Chicago Center
11:41PM 41.8231 -86.8622 126° Southeast 385 443 17,700 1,200 Climbing Chicago Center
11:42PM 41.7617 -86.7450 125° Southeast 387 445 18,800 1,140 Climbing Chicago Center
11:43PM 41.7017 -86.6300 125° Southeast 390 449 20,000 1,080 Climbing Chicago Center
11:44PM 41.6378 -86.5094 125° Southeast 397 457 21,100 1,080 Climbing Chicago Center
11:45PM 41.5722 -86.3858 125° Southeast 408 470 22,200 900 Climbing Chicago Center
11:46PM 41.4922 -86.2331 125° Southeast 420 483 23,000 360 Climbing Chicago Center
11:47PM 41.4200 -86.0983 126° Southeast 446 513 23,000  Level Chicago Center
11:48PM 41.3444 -85.9575 126° Southeast 469 540 23,000  Level Chicago Center
11:49PM 41.2686 -85.8172 126° Southeast 471 542 23,000  Level Chicago Center
11:50PM 41.1953 -85.6797 125° Southeast 464 534 23,000  Level Chicago Center
11:51PM 41.1219 -85.5450 126° Southeast 458 527 23,000  Level Chicago Center
11:52PM 41.0492 -85.4094 125° Southeast 456 525 23,000  Level Chicago Center
11:53PM 40.9728 -85.2683 126° Southeast 471 542 23,000 -60 Level Chicago Center
11:54PM 40.8969 -85.1289 126° Southeast 475 547 22,900 -960 Descending Chicago Center
11:55PM 40.8217 -84.9939 126° Southeast 464 534 21,100 -1,860 Descending Chicago Center
11:56PM 40.7481 -84.8625 126° Southeast 454 522 19,200 -1,860 Descending Chicago Center
11:57PM 40.6775 -84.7344 126° Southeast 440 506 17,400 -2,040 Descending Chicago Center
11:58PM 40.6069 -84.6111 127° Southeast 420 483 15,500 -2,040 Descending Indianapolis Center
11:59PM 40.5417 -84.4936 126° Southeast 402 463 13,600 -1,980 Descending Indianapolis Center
12:00AM 40.4769 -84.3803 127° Southeast 392 451 11,600 -1,740 Descending Indianapolis Center
12:01AM 40.4203 -84.2781 126° Southeast 353 406 10,200 -1,440 Descending Indianapolis Center
12:02AM 40.3514 -84.2458 160° South 310 357 8,700 -1,680 Descending Indianapolis Center
12:03AM 40.2792 -84.2883 204° Southwest 288 331 6,900 -1,380 Descending Indianapolis Center
12:04AM 40.2092 -84.3272 203° Southwest 280 322 6,000 -660 Descending Indianapolis Center
12:05AM 40.1397 -84.3669 204° Southwest 275 316 5,600 -960 Descending Indianapolis Center
12:06AM 40.0717 -84.4044 203° Southwest 271 312 4,100 -840 Descending Indianapolis Center
12:07AM 40.0053 -84.4414 203° Southwest 267 307 4,000 -60 Descending Indianapolis Center
12:08AM 39.9442 -84.3975 151° Southeast 261 300 4,000 -600 Level Indianapolis Center
12:09AM 39.8900 -84.3528 148° Southeast 240 276 2,900 -960 Descending Indianapolis Center
12:10AM 39.8681 -84.2972 117° Southeast 187 215 2,100 -840 Descending Indianapolis Center
12:11AM 39.8878 -84.2583 57° Northeast 144 166 1,300 -480 Descending Indianapolis Center
12:12AM 39.9069 -84.2197 57° Northeast 141 162 1,200 -120 Descending Indianapolis Center